createdAt,value
2018-07-19T00:02:01.886Z,101637.55
2018-07-19T00:05:06.545Z,101639.77
2018-07-19T00:08:11.116Z,101650.67
2018-07-19T00:11:15.696Z,101650.71
2018-07-19T00:14:20.171Z,101649.41
2018-07-19T00:17:24.748Z,101648.53
2018-07-19T00:20:29.224Z,101651.52
2018-07-19T00:23:33.966Z,101648.33
2018-07-19T00:26:38.364Z,101648.25
2018-07-19T00:29:42.757Z,101646.47
2018-07-19T00:32:47.269Z,101645.60
2018-07-19T00:35:52.088Z,101639.42
2018-07-19T00:38:56.555Z,101641.05
2018-07-19T00:42:00.982Z,101637.94
2018-07-19T00:45:05.543Z,101636.11
2018-07-19T00:48:09.788Z,101636.95
2018-07-19T00:51:14.242Z,101637.86
2018-07-19T00:54:18.778Z,101633.86
2018-07-19T00:57:23.165Z,101634.25
2018-07-19T01:00:27.631Z,101633.85
2018-07-19T01:03:32.030Z,101637.31
2018-07-19T01:06:36.701Z,101644.20
2018-07-19T01:09:41.051Z,101643.30
2018-07-19T01:12:45.444Z,101641.11
2018-07-19T01:15:49.993Z,101650.27
2018-07-19T01:18:54.489Z,101648.05
2018-07-19T01:21:58.917Z,101648.95
2018-07-19T01:25:03.657Z,101650.23
2018-07-19T01:28:08.689Z,101643.69
2018-07-19T01:31:13.379Z,101645.51
2018-07-19T01:34:17.875Z,101652.05
2018-07-19T01:37:22.360Z,101645.91
2018-07-19T01:40:26.918Z,101641.59
2018-07-19T01:43:31.523Z,101639.01
2018-07-19T01:46:35.931Z,101639.80
2018-07-19T01:49:41.816Z,101640.55
2018-07-19T01:52:46.342Z,101647.41
2018-07-19T01:55:50.857Z,101648.28
2018-07-19T01:58:55.483Z,101643.41
2018-07-19T02:01:59.919Z,101649.08
2018-07-19T02:05:04.685Z,101646.42
2018-07-19T02:08:09.164Z,101645.59
2018-07-19T02:11:13.888Z,101646.41
2018-07-19T02:14:18.516Z,101641.11
2018-07-19T02:17:23.071Z,101647.17
2018-07-19T02:20:27.812Z,101640.98
2018-07-19T02:23:32.202Z,101643.12
2018-07-19T02:26:36.640Z,101633.53
2018-07-19T02:29:41.075Z,101636.53
2018-07-19T02:32:47.090Z,101639.67
2018-07-19T02:35:51.567Z,101636.71
2018-07-19T02:38:56.051Z,101628.86
2018-07-19T02:42:00.647Z,101633.66
2018-07-19T02:45:05.102Z,101630.61
2018-07-19T02:48:09.519Z,101641.50
2018-07-19T02:51:14.243Z,101639.55
2018-07-19T02:54:18.624Z,101641.16
2018-07-19T02:57:23.177Z,101633.70
2018-07-19T03:00:27.664Z,101638.94
2018-07-19T03:03:32.140Z,101637.58
2018-07-19T03:06:36.724Z,101631.91
2018-07-19T03:09:41.192Z,101630.60
2018-07-19T03:12:45.700Z,101635.36
2018-07-19T03:15:50.328Z,101630.56
2018-07-19T03:18:54.887Z,101630.13
2018-07-19T03:21:59.414Z,101633.66
2018-07-19T03:25:04.012Z,101629.30
2018-07-19T03:28:08.492Z,101631.53
2018-07-19T03:31:13.222Z,101630.26
2018-07-19T03:34:17.681Z,101638.97
2018-07-19T03:37:22.398Z,101647.12
2018-07-19T03:40:27.183Z,101643.97
2018-07-19T03:43:31.709Z,101638.89
2018-07-19T03:46:36.511Z,101643.89
2018-07-19T03:49:41.034Z,101636.59
2018-07-19T03:52:45.634Z,101638.95
2018-07-19T03:55:50.403Z,101633.42
2018-07-19T03:58:55.041Z,101627.45
2018-07-19T04:01:59.838Z,101627.11
2018-07-19T04:05:04.360Z,101625.03
2018-07-19T04:08:09.042Z,101625.91
2018-07-19T04:11:13.510Z,101630.20
2018-07-19T04:14:18.193Z,101636.11
2018-07-19T04:17:22.995Z,101639.02
2018-07-19T04:20:29.349Z,101631.50
2018-07-19T04:23:34.029Z,101636.63
2018-07-19T04:26:38.741Z,101636.98
2018-07-19T04:29:43.347Z,101635.64
2018-07-19T04:32:47.920Z,101635.67
2018-07-19T04:35:52.527Z,101640.08
2018-07-19T04:38:57.111Z,101634.84
2018-07-19T04:42:01.844Z,101635.75
2018-07-19T04:45:06.850Z,101634.92
2018-07-19T04:48:11.803Z,101633.64
2018-07-19T04:51:16.577Z,101643.75
2018-07-19T04:54:21.173Z,101643.38
2018-07-19T04:57:25.753Z,101644.80
2018-07-19T05:00:30.297Z,101650.97
2018-07-19T05:03:34.590Z,101649.73
2018-07-19T05:06:39.157Z,101654.60
2018-07-19T05:09:43.733Z,101663.00
2018-07-19T05:12:48.469Z,101657.02
2018-07-19T05:15:53.045Z,101662.81
2018-07-19T05:19:04.548Z,101663.34
2018-07-19T05:22:08.899Z,101660.41
2018-07-19T05:25:13.501Z,101659.63
2018-07-19T05:28:17.961Z,101661.48
2018-07-19T05:31:22.488Z,101665.09
2018-07-19T05:34:27.254Z,101665.55
2018-07-19T05:37:32.459Z,101661.70
2018-07-19T05:40:37.191Z,101664.84
2018-07-19T05:43:42.029Z,101660.08
2018-07-19T05:46:46.884Z,101665.80
2018-07-19T05:49:51.659Z,101665.48
2018-07-19T05:52:56.251Z,101663.83
2018-07-19T05:56:01.276Z,101657.70
2018-07-19T05:59:07.450Z,101659.03
2018-07-19T06:02:12.318Z,101655.06
2018-07-19T06:05:17.661Z,101651.61
2018-07-19T06:08:22.289Z,101652.54
2018-07-19T06:11:26.923Z,101651.27
2018-07-19T06:14:32.090Z,101660.97
2018-07-19T06:17:42.332Z,101656.98
2018-07-19T06:20:49.664Z,101656.15
2018-07-19T06:23:54.716Z,101649.69
2018-07-19T06:27:06.792Z,101650.66
2018-07-19T06:30:11.777Z,101660.34
2018-07-19T06:33:16.830Z,101652.48
2018-07-19T06:36:21.487Z,101653.80
2018-07-19T06:39:27.237Z,101645.95
2018-07-19T06:42:31.999Z,101649.53
2018-07-19T06:45:36.497Z,101650.06
2018-07-19T06:48:42.344Z,101652.25
2018-07-19T06:51:46.920Z,101652.80
2018-07-19T06:54:51.477Z,101649.78
2018-07-19T06:57:56.105Z,101655.05
2018-07-19T07:01:02.129Z,101650.69
2018-07-19T07:04:09.365Z,101652.88
2018-07-19T07:07:15.526Z,101649.79
2018-07-19T07:10:20.444Z,101652.43
2018-07-19T07:13:25.040Z,101649.80
2018-07-19T07:16:30.893Z,101654.64
2018-07-19T07:19:39.212Z,101659.45
2018-07-19T07:22:43.668Z,101655.92
2018-07-19T07:25:52.928Z,101647.55
2018-07-19T07:28:57.365Z,101655.05
2018-07-19T07:32:01.704Z,101649.72
2018-07-19T07:35:06.816Z,101653.23
2018-07-19T07:38:11.800Z,101652.75
2018-07-19T07:41:16.626Z,101663.30
2018-07-19T07:44:24.482Z,101659.35
2018-07-19T07:47:29.233Z,101659.28
2018-07-19T07:50:34.226Z,101664.05
2018-07-19T07:53:38.618Z,101652.95
2018-07-19T07:56:43.035Z,101649.30
2018-07-19T07:59:50.868Z,101646.55
2018-07-19T08:03:00.973Z,101648.41
2018-07-19T08:06:05.795Z,101651.49
2018-07-19T08:09:10.741Z,101643.00
2018-07-19T08:12:15.375Z,101647.84
2018-07-19T08:15:19.972Z,101642.31
2018-07-19T08:18:24.373Z,101638.95
2018-07-19T08:21:29.176Z,101632.27
2018-07-19T08:24:33.698Z,101632.18
2018-07-19T08:27:38.374Z,101630.29
2018-07-19T08:30:44.110Z,101631.56
2018-07-19T08:33:48.929Z,101624.39
2018-07-19T08:36:53.699Z,101621.60
2018-07-19T08:39:57.957Z,101625.92
2018-07-19T08:43:02.611Z,101623.12
2018-07-19T08:46:07.258Z,101622.90
2018-07-19T08:49:11.607Z,101618.08
2018-07-19T08:52:27.863Z,101616.73
2018-07-19T08:55:32.129Z,101617.56
2018-07-19T08:58:43.649Z,101614.61
2018-07-19T09:01:48.004Z,101609.95
2018-07-19T09:04:52.297Z,101605.83
2018-07-19T09:07:56.744Z,101616.45
2018-07-19T09:11:01.530Z,101606.03
2018-07-19T09:14:06.231Z,101607.77
2018-07-19T09:17:10.609Z,101608.41
2018-07-19T09:20:15.307Z,101605.54
2018-07-19T09:23:20.185Z,101604.95
2018-07-19T09:26:25.754Z,101605.40
2018-07-19T09:29:30.301Z,101594.09
2018-07-19T09:32:34.974Z,101597.78
2018-07-19T09:35:39.541Z,101593.09
2018-07-19T09:38:44.437Z,101596.66
2018-07-19T09:41:49.248Z,101587.34
2018-07-19T09:44:55.200Z,101586.00
2018-07-19T09:47:59.549Z,101587.27
2018-07-19T09:51:05.062Z,101584.66
2018-07-19T09:54:09.458Z,101590.02
2018-07-19T09:57:16.264Z,101590.79
2018-07-19T10:00:26.324Z,101576.76
2018-07-19T10:03:30.709Z,101584.47
2018-07-19T10:06:35.097Z,101581.95
2018-07-19T10:09:39.838Z,101582.43
2018-07-19T10:12:45.142Z,101586.24
2018-07-19T10:15:49.855Z,101581.71
2018-07-19T10:18:54.290Z,101589.00
2018-07-19T10:21:59.305Z,101580.31
2018-07-19T10:25:05.363Z,101581.54
2018-07-19T10:28:10.314Z,101578.24
2018-07-19T10:31:14.658Z,101573.75
2018-07-19T10:34:19.562Z,101571.59
2018-07-19T10:37:24.587Z,101577.17
2018-07-19T10:40:29.916Z,101578.13
2018-07-19T10:43:34.384Z,101577.99
2018-07-19T10:46:38.678Z,101577.14
2018-07-19T10:49:46.712Z,101579.72
2018-07-19T10:52:51.253Z,101575.13
2018-07-19T10:55:55.581Z,101576.19
2018-07-19T10:58:59.973Z,101569.89
2018-07-19T11:02:04.548Z,101572.17
2018-07-19T11:05:09.252Z,101565.23
2018-07-19T11:08:13.625Z,101568.97
2018-07-19T11:11:18.112Z,101561.05
2018-07-19T11:14:22.432Z,101558.05
2018-07-19T11:17:26.729Z,101561.05
2018-07-19T11:20:31.262Z,101556.09
2018-07-19T11:23:35.635Z,101553.61
2018-07-19T11:26:40.022Z,101560.67
2018-07-19T11:29:44.353Z,101560.28
2018-07-19T11:32:48.737Z,101557.91
2018-07-19T11:35:53.140Z,101556.03
2018-07-19T11:38:57.494Z,101554.55
2018-07-19T11:42:02.130Z,101550.75
2018-07-19T11:45:06.946Z,101549.84
2018-07-19T11:48:11.347Z,101544.98
2018-07-19T11:51:16.066Z,101550.17
2018-07-19T11:54:20.485Z,101548.58
2018-07-19T11:57:24.849Z,101547.58
2018-07-19T12:00:29.167Z,101556.00
2018-07-19T12:03:33.459Z,101553.19
2018-07-19T12:06:37.805Z,101552.56
2018-07-19T12:09:42.232Z,101552.88
2018-07-19T12:12:46.632Z,101548.17
2018-07-19T12:15:51.245Z,101550.30
2018-07-19T12:18:55.399Z,101549.63
2018-07-19T12:21:59.865Z,101551.49
2018-07-19T12:25:04.707Z,101552.48
2018-07-19T12:28:09.061Z,101545.25
2018-07-19T12:31:13.376Z,101542.21
2018-07-19T12:34:17.984Z,101545.14
2018-07-19T12:37:22.313Z,101545.84
2018-07-19T12:40:26.744Z,101549.52
2018-07-19T12:43:31.072Z,101549.52
2018-07-19T12:46:42.565Z,101549.31
2018-07-19T12:49:46.954Z,101545.81
2018-07-19T12:52:51.682Z,101546.37
2018-07-19T12:55:56.205Z,101543.98
2018-07-19T12:59:00.773Z,101551.60
2018-07-19T13:02:05.128Z,101540.84
2018-07-19T13:05:09.481Z,101540.92
2018-07-19T13:08:14.028Z,101543.26
2018-07-19T13:11:18.368Z,101536.81
2018-07-19T13:14:24.441Z,101535.63
2018-07-19T13:17:29.070Z,101533.83
2018-07-19T13:20:33.437Z,101528.03
2018-07-19T13:23:37.996Z,101530.20
2018-07-19T13:26:42.370Z,101528.14
2018-07-19T13:29:46.825Z,101529.88
2018-07-19T13:32:51.313Z,101533.23
2018-07-19T13:35:55.643Z,101531.56
2018-07-19T13:38:59.969Z,101528.90
2018-07-19T13:42:04.365Z,101528.63
2018-07-19T13:45:09.538Z,101531.55
2018-07-19T13:48:13.985Z,101530.42
2018-07-19T13:51:18.302Z,101524.81
2018-07-19T13:54:39.786Z,101519.52
2018-07-19T13:57:44.065Z,101523.64
2018-07-19T14:00:48.421Z,101522.17
2018-07-19T14:03:52.829Z,101517.95
2018-07-19T14:06:57.159Z,101523.94
2018-07-19T14:10:01.439Z,101516.77
2018-07-19T14:13:05.816Z,101525.00
2018-07-19T14:16:10.176Z,101518.47
2018-07-19T14:19:14.647Z,101517.20
2018-07-19T14:22:19.096Z,101522.53
2018-07-19T14:25:23.485Z,101525.04
2018-07-19T14:28:27.781Z,101521.07
2018-07-19T14:31:32.171Z,101519.19
2018-07-19T14:34:36.591Z,101518.06
2018-07-19T14:37:41.012Z,101516.58
2018-07-19T14:40:45.342Z,101516.22
2018-07-19T14:43:49.502Z,101512.77
2018-07-19T14:46:53.839Z,101509.39
2018-07-19T14:49:58.806Z,101505.13
2018-07-19T14:53:03.195Z,101503.05
2018-07-19T14:56:07.588Z,101513.47
2018-07-19T14:59:11.844Z,101505.77
2018-07-19T15:02:16.241Z,101501.87
2018-07-19T15:05:20.630Z,101496.64
2018-07-19T15:08:24.999Z,101501.34
2018-07-19T15:11:29.239Z,101504.88
2018-07-19T15:14:33.822Z,101499.67
2018-07-19T15:17:38.173Z,101506.05
2018-07-19T15:20:42.447Z,101498.47
2018-07-19T15:23:46.761Z,101503.59
2018-07-19T15:26:51.153Z,101492.53
2018-07-19T15:29:55.645Z,101498.08
2018-07-19T15:33:00.053Z,101495.23
2018-07-19T15:36:05.466Z,101501.42
2018-07-19T15:39:10.363Z,101498.27
2018-07-19T15:42:14.848Z,101492.84
2018-07-19T15:45:19.120Z,101496.36
2018-07-19T15:48:23.548Z,101500.28
2018-07-19T15:51:27.938Z,101493.72
2018-07-19T15:54:32.364Z,101500.52
2018-07-19T15:57:36.743Z,101502.27
2018-07-19T16:00:41.108Z,101499.27
2018-07-19T16:03:45.640Z,101503.72
2018-07-19T16:06:50.057Z,101502.13
2018-07-19T16:09:54.417Z,101497.41
2018-07-19T16:12:58.754Z,101494.42
2018-07-19T16:16:02.903Z,101493.22
2018-07-19T16:19:07.304Z,101494.61
2018-07-19T16:22:11.613Z,101488.06
2018-07-19T16:25:15.956Z,101495.57
2018-07-19T16:28:20.355Z,101496.07
2018-07-19T16:31:24.663Z,101487.48
2018-07-19T16:34:28.973Z,101488.03
2018-07-19T16:37:33.334Z,101486.81
2018-07-19T16:40:37.777Z,101489.05
2018-07-19T16:43:42.152Z,101491.06
2018-07-19T16:46:46.881Z,101491.11
2018-07-19T16:49:51.370Z,101497.19
2018-07-19T16:52:55.759Z,101497.59
2018-07-19T16:56:00.358Z,101503.38
2018-07-19T16:59:04.748Z,101497.83
2018-07-19T17:02:09.303Z,101501.23
2018-07-19T17:05:13.633Z,101501.30
2018-07-19T17:08:17.913Z,101496.52
2018-07-19T17:11:22.247Z,101493.70
2018-07-19T17:14:26.551Z,101492.66
2018-07-19T17:17:30.954Z,101483.58
2018-07-19T17:20:35.218Z,101479.75
2018-07-19T17:23:40.155Z,101493.63
2018-07-19T17:26:44.593Z,101489.67
2018-07-19T17:29:48.989Z,101487.87
2018-07-19T17:32:53.482Z,101489.25
2018-07-19T17:35:57.938Z,101494.69
2018-07-19T17:39:02.347Z,101494.53
2018-07-19T17:42:07.222Z,101497.20
2018-07-19T17:45:11.817Z,101498.59
2018-07-19T17:48:16.153Z,101504.94
2018-07-19T17:51:20.557Z,101509.11
2018-07-19T17:54:24.662Z,101507.13
2018-07-19T17:57:29.113Z,101507.38
2018-07-19T18:00:33.483Z,101505.24
2018-07-19T18:03:38.086Z,101506.16
2018-07-19T18:06:42.382Z,101514.17
2018-07-19T18:09:46.770Z,101514.26
2018-07-19T18:12:51.104Z,101515.25
2018-07-19T18:15:55.427Z,101519.71
2018-07-19T18:18:59.941Z,101518.88
2018-07-19T18:22:04.244Z,101516.66
2018-07-19T18:25:08.829Z,101515.45
2018-07-19T18:28:13.229Z,101516.95
2018-07-19T18:31:17.684Z,101518.41
2018-07-19T18:34:22.057Z,101515.31
2018-07-19T18:37:26.576Z,101518.44
2018-07-19T18:40:31.043Z,101522.52
2018-07-19T18:43:35.613Z,101522.19
2018-07-19T18:46:40.051Z,101520.45
2018-07-19T18:49:44.581Z,101524.83
2018-07-19T18:52:49.098Z,101517.37
2018-07-19T18:55:53.836Z,101519.70
2018-07-19T18:58:58.325Z,101517.08
2018-07-19T19:02:02.839Z,101521.53
2018-07-19T19:05:08.206Z,101522.87
2018-07-19T19:08:13.010Z,101526.87
2018-07-19T19:11:18.298Z,101529.06
2018-07-19T19:14:23.324Z,101525.57
2018-07-19T19:17:28.271Z,101522.08
2018-07-19T19:20:32.885Z,101523.87
2018-07-19T19:23:37.848Z,101517.74
2018-07-19T19:26:42.351Z,101523.48
2018-07-19T19:29:46.731Z,101525.70
2018-07-19T19:32:51.201Z,101517.36
2018-07-19T19:35:55.784Z,101519.99
2018-07-19T19:39:00.695Z,101517.81
2018-07-19T19:42:05.328Z,101522.64
2018-07-19T19:45:09.811Z,101523.97
2018-07-19T19:48:14.368Z,101528.35
2018-07-19T19:51:18.749Z,101526.59
2018-07-19T19:54:23.227Z,101523.99
2018-07-19T19:57:27.794Z,101522.67
2018-07-19T20:00:32.282Z,101525.72
2018-07-19T20:03:36.807Z,101532.70
2018-07-19T20:06:41.428Z,101531.39
2018-07-19T20:09:46.369Z,101522.16
2018-07-19T20:12:53.199Z,101525.22
2018-07-19T20:15:57.802Z,101523.03
2018-07-19T20:19:05.640Z,101522.14
2018-07-19T20:22:11.903Z,101526.50
2018-07-19T20:25:16.394Z,101521.21
2018-07-19T20:28:21.004Z,101522.52
2018-07-19T20:31:25.651Z,101521.18
2018-07-19T20:34:30.228Z,101516.81
2018-07-19T20:37:34.977Z,101524.22
2018-07-19T20:40:39.442Z,101515.44
2018-07-19T20:43:44.188Z,101515.00
2018-07-19T20:46:48.698Z,101516.27
2018-07-19T20:49:53.519Z,101515.79
2018-07-19T20:52:58.103Z,101509.22
2018-07-19T20:56:02.464Z,101511.34
2018-07-19T20:59:07.514Z,101514.41
2018-07-19T21:02:11.924Z,101517.91
2018-07-19T21:05:16.520Z,101515.20
2018-07-19T21:08:21.385Z,101516.07
2018-07-19T21:11:26.351Z,101526.97
2018-07-19T21:14:31.037Z,101519.47
2018-07-19T21:17:35.353Z,101512.46
2018-07-19T21:20:40.177Z,101517.66
2018-07-19T21:23:44.669Z,101518.09
2018-07-19T21:26:49.021Z,101516.77
2018-07-19T21:29:54.129Z,101517.16
2018-07-19T21:32:58.535Z,101512.33
2018-07-19T21:36:03.204Z,101510.56
2018-07-19T21:39:10.885Z,101515.73
2018-07-19T21:42:15.191Z,101511.80
2018-07-19T21:45:19.625Z,101510.48
2018-07-19T21:48:24.076Z,101513.94
2018-07-19T21:51:28.683Z,101509.52
2018-07-19T21:54:33.019Z,101512.13
2018-07-19T21:57:52.164Z,101510.36
2018-07-19T22:01:01.828Z,101509.05
2018-07-19T22:04:06.396Z,101504.61
2018-07-19T22:07:11.240Z,101504.13
2018-07-19T22:10:16.281Z,101506.30
2018-07-19T22:13:20.754Z,101504.94
2018-07-19T22:16:25.406Z,101509.22
2018-07-19T22:19:30.124Z,101512.64
2018-07-19T22:22:34.767Z,101510.00
2018-07-19T22:25:39.280Z,101512.16
2018-07-19T22:28:43.775Z,101505.55
2018-07-19T22:31:48.651Z,101507.71
2018-07-19T22:34:54.157Z,101502.86
2018-07-19T22:37:59.706Z,101506.31
2018-07-19T22:41:04.225Z,101503.21
2018-07-19T22:44:09.039Z,101504.46
2018-07-19T22:47:13.678Z,101504.44
2018-07-19T22:50:18.258Z,101502.58
2018-07-19T22:53:22.779Z,101501.27
2018-07-19T22:56:27.181Z,101494.20
2018-07-19T22:59:31.636Z,101502.83
2018-07-19T23:02:36.088Z,101498.44
2018-07-19T23:05:40.662Z,101491.87
2018-07-19T23:08:45.186Z,101497.91
2018-07-19T23:11:49.714Z,101495.27
2018-07-19T23:14:54.959Z,101502.67
2018-07-19T23:17:59.495Z,101498.78
2018-07-19T23:21:04.052Z,101501.80
2018-07-19T23:24:08.533Z,101507.00
2018-07-19T23:27:13.313Z,101507.41
2018-07-19T23:30:18.270Z,101511.20
2018-07-19T23:33:22.754Z,101509.42
2018-07-19T23:36:31.973Z,101512.77
2018-07-19T23:39:42.786Z,101506.62
2018-07-19T23:42:52.717Z,101495.59
2018-07-19T23:46:02.009Z,101492.87
2018-07-19T23:49:07.190Z,101486.70
2018-07-19T23:52:11.600Z,101486.22
2018-07-19T23:55:16.227Z,101490.98
2018-07-19T23:58:20.778Z,101481.91
